Main page
METAR-TAF:

METAR-TAF

Airports :

Bojnourd, Iran

Bojnord Airport

latitude: 37-28N, longitude: 057-20E, elevation: 1074 m

Current weather observation

The report was made 1 hour and 15 minutes ago, at 22:00 UTC
Calm wind
Temperature 17°C
Humidity 36%
Pressure 1015 hPa
Visibility 10 km or more
no clouds below 1500 m and no cumulonimbus

METAR: OIMN 232200Z 00000KT CAVOK 17/02 Q1015

Time: 03:45 (23:15 UTC)


TAF: missing

Weather observations and forecasts of more than 4000 airports (METAR and TAF reports).

The available stations are represented by yellow and red dots on the map.

Hover mouse over dot to see the name of the station.

Then click to see weather observations and forecasts.

To change the map : click on the green buttons with a black cross to zoom in, on the green button with a dash to zoom out, or on the green arrows for adjacent maps.


METAR-TAF: